Time;durP1;ratioP1;P1;durP2;ratioP2;P2;SDS_P1;SDS_P2;PMS_P1;PMS_P2;Temp;Humidity;BMP_temperature;BMP_pressure;BME280_temperature;BME280_humidity;BME280_pressure;Samples;Min_cycle;Max_cycle;Signal;HPM_P1;HPM_P2
2022/03/27 00:02:26;;;;;;;0.10;0.10;;;;;;;;;;5148994;27;20284;-77
2022/03/27 00:04:53;;;;;;;0.10;0.10;;;;;;;;;;5126722;28;20258;-77
2022/03/27 00:07:19;;;;;;;0.10;0.10;;;;;;;;;;5149096;27;20239;-77
2022/03/27 00:09:45;;;;;;;0.20;0.20;;;;;;;;;;5126186;28;20226;-76
2022/03/27 00:12:11;;;;;;;0.10;0.10;;;;;;;;;;5149101;27;20487;-76
2022/03/27 00:14:38;;;;;;;0.10;0.10;;;;;;;;;;5125362;28;20260;-77
2022/03/27 00:17:05;;;;;;;0.10;0.10;;;;;;;;;;5148238;27;20440;-77
2022/03/27 00:19:33;;;;;;;0.10;0.10;;;;;;;;;;5126095;27;20266;-77
2022/03/27 00:21:59;;;;;;;0.10;0.10;;;;;;;;;;5146800;27;20243;-78
2022/03/27 00:24:27;;;;;;;0.10;0.10;;;;;;;;;;5127478;27;20197;-77
2022/03/27 00:26:53;;;;;;;0.10;0.10;;;;;;;;;;5145199;27;20290;-77
2022/03/27 00:29:21;;;;;;;0.10;0.10;;;;;;;;;;5128390;27;20557;-77
2022/03/27 00:31:48;;;;;;;0.10;0.10;;;;;;;;;;5143542;27;20242;-77
2022/03/27 00:34:14;;;;;;;0.10;0.10;;;;;;;;;;5130357;27;20218;-76
2022/03/27 00:36:42;;;;;;;0.10;0.10;;;;;;;;;;5141501;27;20242;-77
2022/03/27 00:39:08;;;;;;;0.20;0.20;;;;;;;;;;5132352;27;20462;-76
2022/03/27 00:41:34;;;;;;;0.10;0.10;;;;;;;;;;5140186;27;20303;-77
2022/03/27 00:44:01;;;;;;;0.10;0.10;;;;;;;;;;5133562;27;20220;-76
2022/03/27 00:46:27;;;;;;;1.60;1.60;;;;;;;;;;5133799;27;20237;-77
2022/03/27 00:48:54;;;;;;;0.10;0.10;;;;;;;;;;5138525;27;20209;-78
2022/03/27 00:51:20;;;;;;;0.10;0.10;;;;;;;;;;5133215;27;20233;-77
2022/03/27 00:53:48;;;;;;;0.10;0.10;;;;;;;;;;5139817;27;20205;-77
2022/03/27 00:56:14;;;;;;;0.10;0.10;;;;;;;;;;5132862;27;20344;-77
2022/03/27 00:58:41;;;;;;;0.10;0.10;;;;;;;;;;5140162;27;20203;-76
2022/03/27 01:01:15;;;;;;;0.10;0.10;;;;;;;;;;5130390;27;20246;-76
2022/03/27 01:03:43;;;;;;;0.10;0.10;;;;;;;;;;5139074;27;20180;-77
2022/03/27 01:06:18;;;;;;;0.10;0.10;;;;;;;;;;5132222;27;20241;-76
2022/03/27 01:11:30;;;;;;;0.10;0.10;;;;;;;;;;5137350;27;20279;-76
2022/03/27 01:13:57;;;;;;;0.50;0.50;;;;;;;;;;5134590;27;20564;-77
2022/03/27 01:16:32;;;;;;;0.10;0.10;;;;;;;;;;5135703;27;20246;-78
2022/03/27 01:18:59;;;;;;;0.10;0.10;;;;;;;;;;5133365;27;20196;-78
2022/03/27 01:21:27;;;;;;;0.30;0.30;;;;;;;;;;5136324;27;20238;-76
2022/03/27 01:23:54;;;;;;;0.10;0.10;;;;;;;;;;5134890;27;20204;-76
2022/03/27 01:26:20;;;;;;;0.10;0.10;;;;;;;;;;5134749;27;20247;-79
2022/03/27 01:28:46;;;;;;;0.63;0.63;;;;;;;;;;5136696;27;20330;-77
2022/03/27 01:31:13;;;;;;;0.10;0.10;;;;;;;;;;5131630;27;20233;-77
2022/03/27 01:33:40;;;;;;;0.10;0.10;;;;;;;;;;5139575;27;20204;-77
2022/03/27 01:36:06;;;;;;;0.10;0.10;;;;;;;;;;5130650;27;20240;-78
2022/03/27 01:38:35;;;;;;;0.10;0.10;;;;;;;;;;5140387;27;20205;-77
2022/03/27 01:41:02;;;;;;;0.10;0.10;;;;;;;;;;5128936;27;20236;-77
2022/03/27 01:43:28;;;;;;;0.10;0.10;;;;;;;;;;5141380;27;20267;-77
2022/03/27 01:45:55;;;;;;;0.10;0.10;;;;;;;;;;5127097;27;20236;-76
2022/03/27 01:48:21;;;;;;;0.20;0.20;;;;;;;;;;5143801;27;20253;-76
2022/03/27 01:50:57;;;;;;;0.20;0.20;;;;;;;;;;5122533;27;20248;-76
2022/03/27 01:53:25;;;;;;;0.10;0.10;;;;;;;;;;5145596;27;20260;-77
2022/03/27 01:55:53;;;;;;;0.20;0.20;;;;;;;;;;5125611;27;20237;-76
2022/03/27 01:58:19;;;;;;;0.10;0.10;;;;;;;;;;5143808;27;20212;-77
2022/03/27 02:00:46;;;;;;;0.10;0.10;;;;;;;;;;5124080;27;20572;-77
2022/03/27 02:03:12;;;;;;;0.10;0.10;;;;;;;;;;5144850;27;20203;-76
2022/03/27 02:05:38;;;;;;;2.77;2.63;;;;;;;;;;5122257;27;20319;-76
2022/03/27 02:08:05;;;;;;;0.10;0.10;;;;;;;;;;5147655;27;20200;-77
2022/03/27 02:10:31;;;;;;;0.10;0.10;;;;;;;;;;5120925;27;20426;-79
2022/03/27 02:13:00;;;;;;;0.10;0.10;;;;;;;;;;5149678;27;20223;-76
2022/03/27 02:15:28;;;;;;;0.10;0.10;;;;;;;;;;5119290;27;20305;-77
2022/03/27 02:17:55;;;;;;;0.10;0.10;;;;;;;;;;5150151;27;20196;-78
2022/03/27 02:20:21;;;;;;;0.10;0.10;;;;;;;;;;5117989;27;20245;-77
2022/03/27 02:22:47;;;;;;;0.10;0.10;;;;;;;;;;5152083;27;20210;-77
2022/03/27 02:25:13;;;;;;;0.17;0.17;;;;;;;;;;5115635;27;20256;-77
2022/03/27 02:27:40;;;;;;;0.23;0.23;;;;;;;;;;5154643;27;20196;-77
2022/03/27 02:30:10;;;;;;;0.10;0.10;;;;;;;;;;5115019;27;20208;-77
2022/03/27 02:32:36;;;;;;;0.10;0.10;;;;;;;;;;5155525;27;20232;-78
2022/03/27 02:35:03;;;;;;;0.10;0.10;;;;;;;;;;5123801;27;20224;-79
2022/03/27 02:37:29;;;;;;;0.70;0.70;;;;;;;;;;5145634;27;20234;-78
2022/03/27 02:39:55;;;;;;;0.10;0.10;;;;;;;;;;5123720;28;20516;-77
2022/03/27 02:42:22;;;;;;;0.10;0.10;;;;;;;;;;5129685;27;20556;-76
2022/03/27 02:44:48;;;;;;;0.10;0.10;;;;;;;;;;5123731;27;20210;-78
2022/03/27 02:47:16;;;;;;;3.60;3.40;;;;;;;;;;5146239;27;20422;-77
2022/03/27 02:49:43;;;;;;;0.10;0.10;;;;;;;;;;5123413;28;20204;-77
2022/03/27 02:52:09;;;;;;;0.10;0.10;;;;;;;;;;5146018;27;20238;-77
2022/03/27 02:54:35;;;;;;;0.10;0.10;;;;;;;;;;5123698;28;20204;-77
2022/03/27 02:57:03;;;;;;;0.17;0.17;;;;;;;;;;5142402;27;20237;-76
2022/03/27 02:59:30;;;;;;;0.10;0.10;;;;;;;;;;5126580;27;20211;-75
2022/03/27 03:01:57;;;;;;;0.10;0.10;;;;;;;;;;5142328;27;20241;-76
2022/03/27 03:04:24;;;;;;;0.10;0.10;;;;;;;;;;5125452;27;20300;-77
2022/03/27 03:06:51;;;;;;;0.10;0.10;;;;;;;;;;5141951;27;20237;-76
2022/03/27 03:09:17;;;;;;;0.17;0.17;;;;;;;;;;5127185;27;20228;-77
2022/03/27 03:11:45;;;;;;;0.10;0.10;;;;;;;;;;5137521;27;20236;-77
2022/03/27 03:14:12;;;;;;;0.10;0.10;;;;;;;;;;5128942;27;20203;-79
2022/03/27 03:16:39;;;;;;;0.13;0.13;;;;;;;;;;5138077;27;20300;-77
2022/03/27 03:19:06;;;;;;;0.10;0.10;;;;;;;;;;5130403;27;20222;-77
2022/03/27 03:21:34;;;;;;;0.10;0.10;;;;;;;;;;5136705;27;20453;-78
2022/03/27 03:24:00;;;;;;;0.10;0.10;;;;;;;;;;5131734;27;20207;-77
2022/03/27 03:26:26;;;;;;;0.10;0.10;;;;;;;;;;5134936;27;20439;-77
2022/03/27 03:28:53;;;;;;;0.10;0.10;;;;;;;;;;5133492;27;20202;-77
2022/03/27 03:31:19;;;;;;;0.10;0.10;;;;;;;;;;5132150;27;20455;-78
2022/03/27 03:33:45;;;;;;;0.10;0.10;;;;;;;;;;5135802;27;20221;-77
2022/03/27 03:36:15;;;;;;;0.10;0.10;;;;;;;;;;5130575;27;20577;-77
2022/03/27 03:38:43;;;;;;;0.20;0.20;;;;;;;;;;5136487;27;20199;-77
2022/03/27 03:41:09;;;;;;;0.10;0.10;;;;;;;;;;5129943;27;20237;-77
2022/03/27 03:43:36;;;;;;;0.10;0.10;;;;;;;;;;5138254;27;20195;-76
2022/03/27 03:46:02;;;;;;;0.10;0.10;;;;;;;;;;5127958;27;20293;-76
2022/03/27 03:48:29;;;;;;;0.10;0.10;;;;;;;;;;5141034;27;20202;-77
2022/03/27 03:50:55;;;;;;;0.10;0.10;;;;;;;;;;5127324;27;20245;-76
2022/03/27 03:53:22;;;;;;;0.10;0.10;;;;;;;;;;5148282;27;20225;-77
2022/03/27 03:55:49;;;;;;;0.10;0.10;;;;;;;;;;5126642;27;20243;-77
2022/03/27 03:58:15;;;;;;;0.10;0.10;;;;;;;;;;5146706;27;20254;-77
2022/03/27 04:00:42;;;;;;;0.10;0.10;;;;;;;;;;5125363;27;20236;-77
2022/03/27 04:03:09;;;;;;;0.27;0.27;;;;;;;;;;5148583;27;20220;-75
2022/03/27 04:05:35;;;;;;;0.10;0.10;;;;;;;;;;5126531;28;20235;-76
2022/03/27 04:08:02;;;;;;;0.20;0.20;;;;;;;;;;5126127;28;20203;-77
2022/03/27 04:10:28;;;;;;;0.10;0.10;;;;;;;;;;5122284;27;20243;-78
2022/03/27 04:12:56;;;;;;;0.10;0.10;;;;;;;;;;5152784;27;20227;-76
2022/03/27 04:15:22;;;;;;;0.10;0.10;;;;;;;;;;5120306;27;20228;-77
2022/03/27 04:17:50;;;;;;;0.10;0.10;;;;;;;;;;5154520;27;20212;-77
2022/03/27 04:20:17;;;;;;;0.10;0.10;;;;;;;;;;5118322;27;20355;-77
2022/03/27 04:22:43;;;;;;;0.10;0.10;;;;;;;;;;5155746;27;20231;-77
2022/03/27 04:25:11;;;;;;;0.10;0.10;;;;;;;;;;5116875;27;20202;-76
2022/03/27 04:27:37;;;;;;;0.10;0.10;;;;;;;;;;5157698;27;20192;-76
2022/03/27 04:30:08;;;;;;;2.23;2.13;;;;;;;;;;5126005;28;20432;-76
2022/03/27 04:32:34;;;;;;;0.10;0.10;;;;;;;;;;5114233;28;20556;-77
2022/03/27 04:35:00;;;;;;;0.10;0.10;;;;;;;;;;5126003;28;20439;-77
2022/03/27 04:37:27;;;;;;;0.10;0.10;;;;;;;;;;5148197;27;20281;-76
2022/03/27 04:39:59;;;;;;;0.10;0.10;;;;;;;;;;5126088;28;20203;-76
2022/03/27 04:42:26;;;;;;;0.10;0.10;;;;;;;;;;5148343;27;20234;-77
2022/03/27 04:44:53;;;;;;;0.90;0.90;;;;;;;;;;5126141;27;20206;-78
2022/03/27 04:47:20;;;;;;;0.10;0.10;;;;;;;;;;5148036;27;20503;-77
2022/03/27 04:49:46;;;;;;;50.83;25.87;;;;;;;;;;5125814;27;20243;-76
2022/03/27 04:52:13;;;;;;;0.20;0.20;;;;;;;;;;5147083;27;20256;-77
2022/03/27 04:54:40;;;;;;;0.10;0.10;;;;;;;;;;5124820;27;20205;-76
2022/03/27 04:57:06;;;;;;;0.20;0.20;;;;;;;;;;5147388;27;20281;-76
2022/03/27 04:59:33;;;;;;;0.20;0.20;;;;;;;;;;5123360;28;20203;-76
2022/03/27 05:02:01;;;;;;;0.10;0.10;;;;;;;;;;5146021;27;20254;-76
2022/03/27 05:04:29;;;;;;;0.10;0.10;;;;;;;;;;5126490;27;20197;-77
2022/03/27 05:06:55;;;;;;;0.17;0.17;;;;;;;;;;5144948;27;20240;-76
2022/03/27 05:09:22;;;;;;;0.10;0.10;;;;;;;;;;5127555;27;20206;-76
2022/03/27 05:11:51;;;;;;;0.10;0.10;;;;;;;;;;5142677;27;20236;-77
2022/03/27 05:14:17;;;;;;;0.10;0.10;;;;;;;;;;5128672;27;20202;-77
2022/03/27 05:16:48;;;;;;;0.10;0.10;;;;;;;;;;5141080;27;20262;-76
2022/03/27 05:19:14;;;;;;;0.10;0.10;;;;;;;;;;5130140;27;20221;-78
2022/03/27 05:21:43;;;;;;;0.17;0.17;;;;;;;;;;5140554;27;20236;-77
2022/03/27 05:24:10;;;;;;;0.17;0.17;;;;;;;;;;5131012;27;20245;-75
2022/03/27 05:26:36;;;;;;;0.10;0.10;;;;;;;;;;5139271;27;20239;-78
2022/03/27 05:29:06;;;;;;;0.10;0.10;;;;;;;;;;5132522;27;20195;-77
2022/03/27 05:31:36;;;;;;;0.10;0.10;;;;;;;;;;5137967;27;20248;-76
2022/03/27 05:34:03;;;;;;;0.10;0.10;;;;;;;;;;5132680;27;20269;-76
2022/03/27 05:36:30;;;;;;;0.20;0.20;;;;;;;;;;5137663;27;20392;-77
2022/03/27 05:38:58;;;;;;;0.10;0.10;;;;;;;;;;5134089;27;20306;-76
2022/03/27 05:41:24;;;;;;;4.27;4.10;;;;;;;;;;5136229;27;20311;-77
2022/03/27 05:43:50;;;;;;;0.20;0.20;;;;;;;;;;5135874;27;20388;-76
2022/03/27 05:46:17;;;;;;;0.20;0.20;;;;;;;;;;5133660;27;20473;-76
2022/03/27 05:48:43;;;;;;;0.10;0.10;;;;;;;;;;5130213;27;20266;-77
2022/03/27 05:51:09;;;;;;;0.10;0.10;;;;;;;;;;5129032;27;20450;-77
2022/03/27 05:53:36;;;;;;;0.10;0.10;;;;;;;;;;5142172;27;20229;-77
2022/03/27 05:56:03;;;;;;;0.20;0.20;;;;;;;;;;5128681;27;20483;-77
2022/03/27 05:58:30;;;;;;;0.10;0.10;;;;;;;;;;5141837;27;20411;-77
2022/03/27 06:00:56;;;;;;;0.10;0.10;;;;;;;;;;5127483;27;20323;-77
2022/03/27 06:03:22;;;;;;;0.10;0.10;;;;;;;;;;5142208;27;20202;-76
2022/03/27 06:05:51;;;;;;;0.10;0.10;;;;;;;;;;5124291;27;20244;-77
2022/03/27 06:08:18;;;;;;;0.20;0.20;;;;;;;;;;5144815;27;20222;-78
2022/03/27 06:10:45;;;;;;;0.10;0.10;;;;;;;;;;5124466;27;20299;-76
2022/03/27 06:13:13;;;;;;;0.10;0.10;;;;;;;;;;5145686;27;20261;-78
2022/03/27 06:15:40;;;;;;;0.10;0.10;;;;;;;;;;5120237;27;20319;-76
2022/03/27 06:18:09;;;;;;;0.20;0.20;;;;;;;;;;5147356;27;20247;-76
2022/03/27 06:20:35;;;;;;;0.20;0.20;;;;;;;;;;5121774;27;20248;-76
2022/03/27 06:23:02;;;;;;;0.10;0.10;;;;;;;;;;5147939;27;20231;-77
2022/03/27 06:25:29;;;;;;;0.57;0.57;;;;;;;;;;5118587;27;20286;-75
2022/03/27 06:27:55;;;;;;;0.10;0.10;;;;;;;;;;5150827;27;20266;-78
2022/03/27 06:30:24;;;;;;;1.20;1.20;;;;;;;;;;5117586;27;20448;-78
2022/03/27 06:32:52;;;;;;;0.10;0.10;;;;;;;;;;5136433;27;20398;-77
2022/03/27 06:35:19;;;;;;;0.10;0.10;;;;;;;;;;5116294;27;20226;-77
2022/03/27 06:37:46;;;;;;;0.10;0.10;;;;;;;;;;5152801;27;20205;-76
2022/03/27 06:40:13;;;;;;;0.10;0.10;;;;;;;;;;5114481;27;20206;-77
2022/03/27 06:42:40;;;;;;;0.17;0.17;;;;;;;;;;5154081;27;20482;-78
2022/03/27 06:45:08;;;;;;;0.17;0.17;;;;;;;;;;5114301;28;20206;-76
2022/03/27 06:47:36;;;;;;;4.30;4.00;;;;;;;;;;5155156;27;20253;-77
2022/03/27 06:50:05;;;;;;;1.20;1.20;;;;;;;;;;5123067;27;20206;-77
2022/03/27 06:52:34;;;;;;;0.10;0.10;;;;;;;;;;5145562;27;20236;-77
2022/03/27 06:55:00;;;;;;;0.10;0.10;;;;;;;;;;5123610;28;20202;-76
2022/03/27 06:57:27;;;;;;;0.87;0.87;;;;;;;;;;5145860;27;20243;-77
2022/03/27 07:05:22;;;;;;;0.10;0.10;;;;;;;;;;5114277;27;20247;-77
2022/03/27 07:07:48;;;;;;;1.20;1.20;;;;;;;;;;5136947;28;20394;-77
2022/03/27 07:10:15;;;;;;;0.17;0.17;;;;;;;;;;5114670;27;20202;-78
2022/03/27 07:12:42;;;;;;;0.10;0.10;;;;;;;;;;5154366;27;20288;-76
2022/03/27 07:15:09;;;;;;;0.10;0.10;;;;;;;;;;5113860;27;20226;-77
2022/03/27 07:17:44;;;;;;;0.10;0.10;;;;;;;;;;5155301;27;20393;-78
2022/03/27 07:20:11;;;;;;;0.10;0.10;;;;;;;;;;5114145;27;20261;-78
2022/03/27 07:22:38;;;;;;;0.10;0.10;;;;;;;;;;5154998;27;20188;-78
2022/03/27 07:25:07;;;;;;;0.10;0.10;;;;;;;;;;5127524;28;20391;-76
2022/03/27 07:27:34;;;;;;;0.20;0.20;;;;;;;;;;5148524;27;20260;-77
2022/03/27 07:30:00;;;;;;;0.93;0.93;;;;;;;;;;5126871;27;20222;-77
2022/03/27 07:32:26;;;;;;;0.10;0.10;;;;;;;;;;5149757;27;20236;-76
2022/03/27 07:34:54;;;;;;;0.10;0.10;;;;;;;;;;5126949;27;20220;-76
2022/03/27 07:37:20;;;;;;;0.10;0.10;;;;;;;;;;5149557;27;20265;-77
2022/03/27 07:39:46;;;;;;;0.10;0.10;;;;;;;;;;5127091;28;20239;-77
2022/03/27 07:42:14;;;;;;;0.10;0.10;;;;;;;;;;5149412;27;20241;-78
2022/03/27 07:44:41;;;;;;;0.10;0.10;;;;;;;;;;5126899;28;20199;-76
2022/03/27 07:47:08;;;;;;;0.10;0.10;;;;;;;;;;5149370;27;20236;-77
2022/03/27 07:49:35;;;;;;;0.10;0.10;;;;;;;;;;5126460;27;20260;-77
2022/03/27 07:52:05;;;;;;;0.10;0.10;;;;;;;;;;5147610;27;20302;-78
2022/03/27 07:54:31;;;;;;;0.10;0.10;;;;;;;;;;5125921;28;20398;-77
2022/03/27 07:56:58;;;;;;;0.10;0.10;;;;;;;;;;5146455;27;20318;-77
2022/03/27 07:59:25;;;;;;;0.10;0.10;;;;;;;;;;5128022;27;20425;-77
2022/03/27 08:01:51;;;;;;;0.10;0.10;;;;;;;;;;5144644;27;20236;-79
2022/03/27 08:04:18;;;;;;;0.67;0.67;;;;;;;;;;5130172;27;20198;-76
2022/03/27 08:06:47;;;;;;;0.10;0.10;;;;;;;;;;5141622;27;20237;-77
2022/03/27 08:09:14;;;;;;;0.10;0.10;;;;;;;;;;5133187;27;20387;-76
2022/03/27 08:11:42;;;;;;;0.10;0.10;;;;;;;;;;5141974;27;20332;-79
2022/03/27 08:14:11;;;;;;;0.10;0.10;;;;;;;;;;5132319;27;20246;-77
2022/03/27 08:16:38;;;;;;;0.30;0.30;;;;;;;;;;5137902;27;20251;-76
2022/03/27 08:19:04;;;;;;;0.10;0.10;;;;;;;;;;5136582;27;20204;-78
2022/03/27 08:21:31;;;;;;;2.30;2.20;;;;;;;;;;5139041;27;20237;-75
2022/03/27 08:23:57;;;;;;;0.10;0.10;;;;;;;;;;5135419;27;20199;-78
2022/03/27 08:29:09;;;;;;;0.10;0.10;;;;;;;;;;5132515;27;20225;-79
2022/03/27 08:31:36;;;;;;;21.23;20.20;;;;;;;;;;5140592;27;20241;-78
2022/03/27 08:34:03;;;;;;;0.10;0.10;;;;;;;;;;5133723;27;20263;-78
2022/03/27 08:36:29;;;;;;;0.10;0.10;;;;;;;;;;5137708;27;20281;-78
2022/03/27 08:38:56;;;;;;;0.10;0.10;;;;;;;;;;5136171;27;20203;-76
2022/03/27 08:41:22;;;;;;;0.10;0.10;;;;;;;;;;5135503;27;20243;-75
2022/03/27 08:43:58;;;;;;;0.10;0.10;;;;;;;;;;5137510;27;20266;-76
2022/03/27 08:46:24;;;;;;;2.67;2.47;;;;;;;;;;5136768;27;20236;-75
2022/03/27 08:48:51;;;;;;;0.00;0.00;;;;;;;;;;5136591;27;20244;-74
2022/03/27 08:51:27;;;;;;;0.07;0.07;;;;;;;;;;5134926;27;20240;-77
2022/03/27 08:53:58;;;;;;;0.10;0.10;;;;;;;;;;5136394;27;20216;-76
2022/03/27 08:56:25;;;;;;;0.10;0.10;;;;;;;;;;5136881;27;20297;-78
2022/03/27 08:58:54;;;;;;;0.10;0.10;;;;;;;;;;5136507;27;20203;-78
2022/03/27 09:01:20;;;;;;;0.10;0.10;;;;;;;;;;5135687;27;20239;-73
2022/03/27 09:03:47;;;;;;;0.00;0.00;;;;;;;;;;5137547;27;20224;-71
2022/03/27 09:06:13;;;;;;;0.10;0.10;;;;;;;;;;5133695;27;20336;-74
2022/03/27 09:08:40;;;;;;;0.03;0.03;;;;;;;;;;5139606;27;20203;-73
2022/03/27 09:11:06;;;;;;;0.10;0.10;;;;;;;;;;5131503;27;20257;-70
2022/03/27 09:13:33;;;;;;;0.10;0.10;;;;;;;;;;5140918;27;20282;-68
2022/03/27 09:16:01;;;;;;;0.10;0.10;;;;;;;;;;5129298;27;20237;-68
2022/03/27 09:18:41;;;;;;;0.00;0.00;;;;;;;;;;5142645;27;20208;-73
2022/03/27 09:21:07;;;;;;;0.10;0.10;;;;;;;;;;5130919;27;20260;-72
2022/03/27 09:23:35;;;;;;;0.10;0.10;;;;;;;;;;5141174;27;20203;-69
2022/03/27 09:26:02;;;;;;;0.10;0.10;;;;;;;;;;5128739;27;20290;-74
2022/03/27 09:28:30;;;;;;;0.10;0.10;;;;;;;;;;5142813;27;20307;-75
2022/03/27 09:30:57;;;;;;;0.05;0.05;;;;;;;;;;5127810;27;20246;-73
2022/03/27 09:33:32;;;;;;;9.30;8.60;;;;;;;;;;5143373;27;20230;-77
2022/03/27 09:36:03;;;;;;;0.10;0.10;;;;;;;;;;5128055;27;20299;-72
2022/03/27 09:38:30;;;;;;;0.10;0.10;;;;;;;;;;5141523;27;20203;-72
2022/03/27 09:40:56;;;;;;;0.00;0.00;;;;;;;;;;5127807;27;20246;-72
2022/03/27 09:43:22;;;;;;;0.10;0.10;;;;;;;;;;5143652;27;20211;-75
2022/03/27 09:45:55;;;;;;;0.10;0.10;;;;;;;;;;5125406;27;20236;-76
2022/03/27 09:48:21;;;;;;;0.10;0.10;;;;;;;;;;5143717;27;20204;-75
2022/03/27 09:50:51;;;;;;;0.00;0.00;;;;;;;;;;5125321;27;20295;-75
2022/03/27 09:53:22;;;;;;;0.10;0.10;;;;;;;;;;5145140;27;20207;-74
2022/03/27 09:55:53;;;;;;;0.10;0.10;;;;;;;;;;5125937;27;20242;-73
2022/03/27 09:58:33;;;;;;;0.05;0.05;;;;;;;;;;5144460;27;20285;-74
2022/03/27 10:01:07;;;;;;;0.10;0.10;;;;;;;;;;5128695;27;20247;-74
2022/03/27 10:03:34;;;;;;;0.10;0.10;;;;;;;;;;5140069;27;20240;-74
2022/03/27 10:06:02;;;;;;;0.03;0.03;;;;;;;;;;5128657;27;20238;-73
2022/03/27 10:08:28;;;;;;;0.00;0.00;;;;;;;;;;5142003;27;20217;-73
2022/03/27 10:10:55;;;;;;;0.03;0.03;;;;;;;;;;5126890;27;20563;-73
2022/03/27 10:13:22;;;;;;;0.00;0.00;;;;;;;;;;5143125;27;20207;-74
2022/03/27 10:15:54;;;;;;;0.00;0.00;;;;;;;;;;5126152;27;20249;-77
2022/03/27 10:18:20;;;;;;;0.10;0.10;;;;;;;;;;5134701;27;20212;-76
2022/03/27 10:20:48;;;;;;;0.10;0.10;;;;;;;;;;5129258;27;20239;-78
2022/03/27 10:23:19;;;;;;;0.00;0.00;;;;;;;;;;5146861;27;20204;-78
2022/03/27 10:25:46;;;;;;;0.20;0.20;;;;;;;;;;5121394;27;20243;-75
2022/03/27 10:28:14;;;;;;;0.08;0.08;;;;;;;;;;5145508;27;20209;-73
2022/03/27 10:30:41;;;;;;;0.00;0.00;;;;;;;;;;5123010;27;20239;-67
2022/03/27 10:33:07;;;;;;;0.10;0.10;;;;;;;;;;5146924;27;20208;-67
2022/03/27 10:35:38;;;;;;;0.00;0.00;;;;;;;;;;5120965;27;20317;-67
2022/03/27 10:38:12;;;;;;;0.00;0.00;;;;;;;;;;5147618;27;20210;-67
2022/03/27 10:40:45;;;;;;;0.00;0.00;;;;;;;;;;5124853;27;20547;-73
2022/03/27 10:43:17;;;;;;;0.10;0.10;;;;;;;;;;5145479;27;20205;-71
2022/03/27 10:45:43;;;;;;;0.00;0.00;;;;;;;;;;5123828;27;20252;-72
2022/03/27 10:48:11;;;;;;;0.00;0.00;;;;;;;;;;5145883;27;20247;-72
2022/03/27 10:50:47;;;;;;;0.25;0.25;;;;;;;;;;5122061;27;20270;-73
2022/03/27 10:53:13;;;;;;;0.00;0.00;;;;;;;;;;5145133;27;20196;-73
2022/03/27 10:55:42;;;;;;;0.00;0.00;;;;;;;;;;5122393;27;20236;-71
2022/03/27 10:58:27;;;;;;;0.00;0.00;;;;;;;;;;5148054;27;20807;-72
2022/03/27 11:00:54;;;;;;;1.35;1.25;;;;;;;;;;5130678;27;20248;-73
2022/03/27 11:03:52;;;;;;;0.00;0.00;;;;;;;;;;5147371;27;20274;-73
2022/03/27 11:06:26;;;;;;;0.10;0.10;;;;;;;;;;5064950;28;20554;-72
2022/03/27 11:08:52;;;;;;;0.00;0.00;;;;;;;;;;5123305;27;20269;-72
2022/03/27 11:11:34;;;;;;;0.00;0.00;;;;;;;;;;5136927;27;20431;-69
2022/03/27 11:14:00;;;;;;;0.00;0.00;;;;;;;;;;5118968;27;20554;-74
2022/03/27 11:16:28;;;;;;;0.10;0.10;;;;;;;;;;5139248;27;20407;-72
2022/03/27 11:18:54;;;;;;;0.00;0.00;;;;;;;;;;5137834;27;20227;-77
2022/03/27 11:21:35;;;;;;;0.00;0.00;;;;;;;;;;5137284;27;20286;-75
2022/03/27 11:24:16;;;;;;;0.10;0.10;;;;;;;;;;5135242;27;20201;-79
2022/03/27 11:26:43;;;;;;;0.00;0.00;;;;;;;;;;5144216;27;20333;-77
2022/03/27 11:29:19;;;;;;;0.00;0.00;;;;;;;;;;5133978;27;20224;-77
2022/03/27 11:32:03;;;;;;;0.00;0.00;;;;;;;;;;5146277;27;20284;-77
2022/03/27 11:34:29;;;;;;;0.00;0.00;;;;;;;;;;5128912;27;20229;-74
2022/03/27 11:37:11;;;;;;;0.00;0.00;;;;;;;;;;5148538;27;20240;-80
2022/03/27 11:39:38;;;;;;;0.00;0.00;;;;;;;;;;5127609;28;20191;-77
2022/03/27 11:42:28;;;;;;;0.00;0.00;;;;;;;;;;5149928;27;20247;-78
2022/03/27 11:45:09;;;;;;;0.00;0.00;;;;;;;;;;5127728;28;20478;-77
2022/03/27 11:47:38;;;;;;;0.00;0.00;;;;;;;;;;5115517;28;20426;-76
2022/03/27 11:50:04;;;;;;;0.00;0.00;;;;;;;;;;5127319;28;20206;-76
2022/03/27 11:52:31;;;;;;;0.65;0.60;;;;;;;;;;5115673;28;20213;-74
2022/03/27 11:55:04;;;;;;;0.00;0.00;;;;;;;;;;5127296;27;20267;-76
2022/03/27 11:57:40;;;;;;;0.00;0.00;;;;;;;;;;5116932;28;20205;-77
2022/03/27 12:00:07;;;;;;;0.00;0.00;;;;;;;;;;5122844;27;20194;-73
2022/03/27 12:02:41;;;;;;;0.00;0.00;;;;;;;;;;5158644;27;20263;-74
2022/03/27 12:05:07;;;;;;;0.05;0.05;;;;;;;;;;5116639;27;20214;-74
2022/03/27 12:07:49;;;;;;;0.00;0.00;;;;;;;;;;5159295;27;20209;-74
2022/03/27 12:10:15;;;;;;;0.08;0.08;;;;;;;;;;5118337;27;20201;-76
2022/03/27 12:12:55;;;;;;;0.00;0.00;;;;;;;;;;5156658;27;20243;-74
2022/03/27 12:15:21;;;;;;;0.00;0.00;;;;;;;;;;5121883;27;20237;-74
2022/03/27 12:17:49;;;;;;;0.00;0.00;;;;;;;;;;5155303;27;20394;-72
2022/03/27 12:20:15;;;;;;;0.00;0.00;;;;;;;;;;5118343;27;20202;-72
2022/03/27 12:22:42;;;;;;;0.00;0.00;;;;;;;;;;5156548;27;20206;-73
2022/03/27 12:25:18;;;;;;;0.00;0.00;;;;;;;;;;5117226;27;20218;-73
2022/03/27 12:30:31;;;;;;;0.00;0.00;;;;;;;;;;5121828;27;20243;-71
2022/03/27 12:33:00;;;;;;;0.10;0.10;;;;;;;;;;5152200;27;20231;-75
2022/03/27 12:35:27;;;;;;;0.00;0.00;;;;;;;;;;5121690;27;20397;-74
2022/03/27 12:37:54;;;;;;;0.00;0.00;;;;;;;;;;5153386;27;20220;-78
2022/03/27 12:40:21;;;;;;;0.00;0.00;;;;;;;;;;5120278;27;20204;-71
2022/03/27 12:42:48;;;;;;;0.03;0.03;;;;;;;;;;5154411;27;20242;-71
2022/03/27 12:45:17;;;;;;;0.00;0.00;;;;;;;;;;5117407;27;20261;-72
2022/03/27 12:47:44;;;;;;;0.00;0.00;;;;;;;;;;5156030;27;20205;-76
2022/03/27 12:50:13;;;;;;;0.00;0.00;;;;;;;;;;5116675;27;20230;-69
2022/03/27 12:52:52;;;;;;;0.00;0.00;;;;;;;;;;5156694;27;20397;-71
2022/03/27 12:55:19;;;;;;;0.10;0.10;;;;;;;;;;5116550;27;20256;-68
2022/03/27 12:57:50;;;;;;;0.00;0.00;;;;;;;;;;5156092;27;20235;-71
2022/03/27 13:00:17;;;;;;;0.03;0.03;;;;;;;;;;5117917;27;20232;-70
2022/03/27 13:02:43;;;;;;;0.00;0.00;;;;;;;;;;5155316;27;20211;-70
2022/03/27 13:05:11;;;;;;;0.08;0.08;;;;;;;;;;5125574;28;20199;-76
2022/03/27 13:07:50;;;;;;;0.00;0.00;;;;;;;;;;5113971;28;20217;-70
2022/03/27 13:10:16;;;;;;;0.00;0.00;;;;;;;;;;5117890;27;20197;-70
2022/03/27 13:12:43;;;;;;;0.00;0.00;;;;;;;;;;5155313;27;20205;-71
2022/03/27 13:15:09;;;;;;;0.00;0.00;;;;;;;;;;5115668;27;20225;-73
2022/03/27 13:17:35;;;;;;;0.00;0.00;;;;;;;;;;5157529;27;20212;-75
2022/03/27 13:20:02;;;;;;;0.10;0.10;;;;;;;;;;5125399;28;20213;-66
2022/03/27 13:22:29;;;;;;;0.00;0.00;;;;;;;;;;5147680;27;20243;-66
2022/03/27 13:24:55;;;;;;;0.00;0.00;;;;;;;;;;5125550;28;20245;-66
2022/03/27 13:27:22;;;;;;;0.05;0.05;;;;;;;;;;5147811;27;20272;-74
2022/03/27 13:29:48;;;;;;;0.00;0.00;;;;;;;;;;5125049;28;20257;-71
2022/03/27 13:32:14;;;;;;;0.38;0.38;;;;;;;;;;5147473;27;20241;-69
2022/03/27 13:34:41;;;;;;;0.08;0.08;;;;;;;;;;5124927;28;20240;-69
2022/03/27 13:37:07;;;;;;;0.00;0.00;;;;;;;;;;5147550;27;20239;-69
2022/03/27 13:39:34;;;;;;;0.10;0.10;;;;;;;;;;5124757;27;20504;-69
2022/03/27 13:44:45;;;;;;;0.00;0.00;;;;;;;;;;5124906;28;20278;-70
2022/03/27 13:47:11;;;;;;;0.10;0.10;;;;;;;;;;5147014;27;20244;-70
2022/03/27 13:49:38;;;;;;;0.00;0.00;;;;;;;;;;5125050;28;20231;-69
2022/03/27 13:52:04;;;;;;;0.85;0.63;;;;;;;;;;5146590;27;20241;-69
2022/03/27 13:54:31;;;;;;;0.00;0.00;;;;;;;;;;5124606;27;20202;-72
2022/03/27 13:56:58;;;;;;;0.03;0.03;;;;;;;;;;5144529;27;20238;-73
2022/03/27 13:59:24;;;;;;;0.00;0.00;;;;;;;;;;5126733;27;20207;-73
2022/03/27 14:01:52;;;;;;;0.00;0.00;;;;;;;;;;5142932;27;20238;-73
2022/03/27 14:04:20;;;;;;;0.08;0.08;;;;;;;;;;5128034;27;20225;-75
2022/03/27 14:06:47;;;;;;;0.00;0.00;;;;;;;;;;5141404;27;20498;-73
2022/03/27 14:09:13;;;;;;;0.10;0.10;;;;;;;;;;5129287;27;20205;-70
2022/03/27 14:11:41;;;;;;;0.00;0.00;;;;;;;;;;5139672;27;20246;-69
2022/03/27 14:14:09;;;;;;;0.00;0.00;;;;;;;;;;5130508;27;20273;-68
2022/03/27 14:16:35;;;;;;;0.00;0.00;;;;;;;;;;5137819;27;20241;-68
2022/03/27 14:19:02;;;;;;;0.10;0.10;;;;;;;;;;5132444;27;20213;-75
2022/03/27 14:21:28;;;;;;;0.10;0.10;;;;;;;;;;5135860;27;20288;-78
2022/03/27 14:23:54;;;;;;;0.00;0.00;;;;;;;;;;5133960;27;20254;-74
2022/03/27 14:26:22;;;;;;;0.03;0.03;;;;;;;;;;5134079;27;20361;-75
2022/03/27 14:28:48;;;;;;;0.00;0.00;;;;;;;;;;5135670;27;20203;-75
2022/03/27 14:31:16;;;;;;;0.00;0.00;;;;;;;;;;5132217;27;20268;-76
2022/03/27 14:33:43;;;;;;;0.10;0.10;;;;;;;;;;5137326;27;20205;-75
2022/03/27 14:36:09;;;;;;;0.00;0.00;;;;;;;;;;5130646;27;20301;-76
2022/03/27 14:38:36;;;;;;;0.00;0.00;;;;;;;;;;5139157;27;20210;-75
2022/03/27 14:41:02;;;;;;;0.00;0.00;;;;;;;;;;5128819;27;20254;-76
2022/03/27 14:43:29;;;;;;;0.10;0.10;;;;;;;;;;5141082;27;20237;-68
2022/03/27 14:45:56;;;;;;;0.10;0.10;;;;;;;;;;5126543;27;20459;-72
2022/03/27 14:48:24;;;;;;;0.00;0.00;;;;;;;;;;5142684;27;20365;-68
2022/03/27 14:50:51;;;;;;;0.10;0.10;;;;;;;;;;5125191;27;20245;-70
2022/03/27 14:53:18;;;;;;;0.10;0.10;;;;;;;;;;5144284;27;20446;-70
2022/03/27 14:55:59;;;;;;;0.03;0.03;;;;;;;;;;5123177;27;20582;-70
2022/03/27 14:58:25;;;;;;;0.10;0.10;;;;;;;;;;5141817;27;20204;-69
2022/03/27 15:00:52;;;;;;;0.00;0.00;;;;;;;;;;5125225;27;20300;-73
2022/03/27 15:03:18;;;;;;;0.10;0.10;;;;;;;;;;5143524;27;20202;-70
2022/03/27 15:05:45;;;;;;;0.00;0.00;;;;;;;;;;5123537;27;20237;-69